Time;durP1;ratioP1;P1;durP2;ratioP2;P2;SDS_P1;SDS_P2;PMS_P1;PMS_P2;Temp;Humidity;BMP_temperature;BMP_pressure;BME280_temperature;BME280_humidity;BME280_pressure;Samples;Min_cycle;Max_cycle;Signal;HPM_P1;HPM_P2
2021/03/07 00:01:57;;;;;;;11.20;7.37;;;-0.70;93.90;;;;;;5053929;28;20213;-60
2021/03/07 00:04:23;;;;;;;11.60;7.80;;;-0.70;94.30;;;;;;5053694;28;20209;-60
2021/03/07 00:06:49;;;;;;;12.73;7.87;;;-0.70;94.00;;;;;;5053754;28;20230;-60
2021/03/07 00:09:15;;;;;;;11.10;8.07;;;-0.60;94.10;;;;;;5054122;28;20712;-60
2021/03/07 00:11:42;;;;;;;12.77;8.30;;;-0.60;94.20;;;;;;5054072;28;20220;-59
2021/03/07 00:14:08;;;;;;;13.67;8.57;;;-0.60;94.20;;;;;;5053676;28;20213;-59
2021/03/07 00:16:35;;;;;;;12.63;7.93;;;-0.60;94.00;;;;;;5053366;28;20299;-60
2021/03/07 00:19:01;;;;;;;10.90;8.17;;;-0.70;93.90;;;;;;5053821;28;20246;-59
2021/03/07 00:21:27;;;;;;;11.67;7.30;;;-0.70;93.90;;;;;;5053333;28;20744;-60
2021/03/07 00:23:53;;;;;;;10.90;7.10;;;-0.60;93.90;;;;;;5053774;28;20209;-60
2021/03/07 00:26:20;;;;;;;13.57;8.93;;;-0.70;93.70;;;;;;5053586;28;20225;-60
2021/03/07 00:28:46;;;;;;;15.53;11.73;;;-0.70;93.70;;;;;;5053032;28;20217;-60
2021/03/07 00:31:12;;;;;;;16.17;11.37;;;-0.70;93.80;;;;;;5053029;28;20248;-60
2021/03/07 00:33:39;;;;;;;12.77;8.43;;;-0.70;93.80;;;;;;5053379;28;20214;-60
2021/03/07 00:36:06;;;;;;;22.87;16.17;;;-0.70;93.90;;;;;;5053333;28;20248;-60
2021/03/07 00:38:32;;;;;;;12.50;9.17;;;-0.80;93.90;;;;;;5052957;28;20705;-60
2021/03/07 00:40:58;;;;;;;10.73;7.23;;;-0.80;93.90;;;;;;5053426;28;20206;-59
2021/03/07 00:43:24;;;;;;;12.13;7.23;;;-0.70;93.90;;;;;;5052915;28;20210;-59
2021/03/07 00:45:50;;;;;;;9.37;6.80;;;-0.70;93.90;;;;;;5052847;28;20217;-59
2021/03/07 00:48:17;;;;;;;9.03;6.50;;;-0.70;93.80;;;;;;5053316;28;20710;-59
2021/03/07 00:50:44;;;;;;;10.03;6.30;;;-0.70;93.70;;;;;;5053258;28;20225;-59
2021/03/07 00:53:10;;;;;;;8.93;5.93;;;-0.70;93.60;;;;;;5053181;28;20205;-59
2021/03/07 00:55:36;;;;;;;10.50;7.47;;;-0.70;93.60;;;;;;5052509;28;20217;-60
2021/03/07 00:58:03;;;;;;;12.50;7.40;;;-0.60;93.60;;;;;;5053013;28;20213;-59
2021/03/07 01:00:31;;;;;;;9.43;7.73;;;-0.60;93.40;;;;;;5052672;28;20206;-59
2021/03/07 01:02:57;;;;;;;9.50;6.60;;;-0.60;93.40;;;;;;5053168;28;20209;-60
2021/03/07 01:05:27;;;;;;;10.33;6.83;;;-0.50;93.40;;;;;;5053071;28;20202;-59
2021/03/07 01:07:54;;;;;;;9.53;6.57;;;-0.50;93.40;;;;;;5053045;28;20228;-60
2021/03/07 01:10:24;;;;;;;12.80;6.90;;;-0.50;93.40;;;;;;5052749;28;20241;-60
2021/03/07 01:12:51;;;;;;;10.37;6.70;;;-0.60;93.40;;;;;;5052732;28;20218;-60
2021/03/07 01:15:18;;;;;;;11.47;6.77;;;-0.60;93.80;;;;;;5052347;28;20206;-60
2021/03/07 01:17:44;;;;;;;12.60;6.87;;;-0.60;93.50;;;;;;5052605;28;20244;-60
2021/03/07 01:20:14;;;;;;;11.53;6.37;;;-0.60;93.50;;;;;;5052856;28;20212;-60
2021/03/07 01:22:40;;;;;;;12.80;6.97;;;-0.60;93.50;;;;;;5052308;28;20714;-60
2021/03/07 01:25:08;;;;;;;10.00;6.73;;;-0.50;93.50;;;;;;5052209;28;20210;-60
2021/03/07 01:27:34;;;;;;;11.63;7.10;;;-0.60;93.50;;;;;;5052629;28;20225;-60
2021/03/07 01:30:01;;;;;;;11.27;7.60;;;-0.60;93.50;;;;;;5052293;28;20225;-59
2021/03/07 01:32:27;;;;;;;12.63;7.10;;;-0.60;93.60;;;;;;5052622;28;20206;-59
2021/03/07 01:34:53;;;;;;;12.13;7.17;;;-0.70;93.60;;;;;;5052202;28;20221;-60
2021/03/07 01:37:19;;;;;;;10.60;7.20;;;-0.70;93.70;;;;;;5052050;28;20577;-60
2021/03/07 01:39:46;;;;;;;10.43;7.20;;;-0.70;93.80;;;;;;5052190;28;20201;-59
2021/03/07 01:42:13;;;;;;;10.47;7.50;;;-0.80;93.90;;;;;;5051979;28;20209;-59
2021/03/07 01:44:39;;;;;;;12.13;8.07;;;-0.90;93.90;;;;;;5052029;28;20213;-59
2021/03/07 01:47:06;;;;;;;12.70;7.90;;;-1.10;94.30;;;;;;5051866;28;20725;-59
2021/03/07 01:49:32;;;;;;;10.77;6.87;;;-1.30;94.60;;;;;;5052213;28;20221;-60
2021/03/07 01:51:59;;;;;;;9.50;6.37;;;-1.30;94.80;;;;;;5052853;28;20217;-60
2021/03/07 01:54:25;;;;;;;11.50;7.10;;;-1.30;94.90;;;;;;5052069;28;20673;-60
2021/03/07 01:56:52;;;;;;;11.10;7.07;;;-1.40;94.90;;;;;;5052190;28;20234;-60
2021/03/07 01:59:21;;;;;;;9.30;6.73;;;-1.40;94.90;;;;;;5054884;28;20570;-62
2021/03/07 02:01:48;;;;;;;12.20;7.20;;;-1.40;94.80;;;;;;5055163;28;20252;-62
2021/03/07 02:04:15;;;;;;;9.97;6.07;;;-1.30;94.80;;;;;;5054851;28;20217;-62
2021/03/07 02:06:42;;;;;;;8.70;5.70;;;-1.30;94.80;;;;;;5054802;28;20281;-61
2021/03/07 02:09:09;;;;;;;7.80;5.53;;;-1.30;94.70;;;;;;5054727;28;20221;-61
2021/03/07 02:11:38;;;;;;;8.57;5.90;;;-1.30;94.70;;;;;;5054678;28;20667;-60
2021/03/07 02:14:06;;;;;;;8.17;6.00;;;-1.20;94.70;;;;;;5055311;28;20644;-62
2021/03/07 02:16:34;;;;;;;9.33;6.17;;;-1.20;94.60;;;;;;5054337;28;20221;-62
2021/03/07 02:19:01;;;;;;;6.53;5.40;;;-1.10;94.90;;;;;;5054907;28;20239;-62
2021/03/07 02:21:33;;;;;;;8.13;5.50;;;-1.20;94.60;;;;;;5055413;28;20217;-62
2021/03/07 02:24:04;;;;;;;10.53;5.83;;;-1.40;94.80;;;;;;5055028;28;20202;-60
2021/03/07 02:26:31;;;;;;;10.03;6.10;;;-1.50;95.10;;;;;;5054755;28;20240;-61
2021/03/07 02:28:58;;;;;;;10.43;6.20;;;-1.40;95.10;;;;;;5054469;28;20615;-61
2021/03/07 02:31:26;;;;;;;9.83;6.17;;;-1.40;94.90;;;;;;5054739;28;20259;-61
2021/03/07 02:33:59;;;;;;;8.53;6.17;;;-1.30;94.80;;;;;;5054531;28;20221;-61
2021/03/07 02:36:30;;;;;;;7.57;5.60;;;-1.20;94.90;;;;;;5054760;28;20230;-62
2021/03/07 02:38:58;;;;;;;7.73;5.77;;;-1.20;94.80;;;;;;5055482;28;20209;-61
2021/03/07 02:41:29;;;;;;;9.37;6.00;;;-1.20;94.80;;;;;;5055509;28;20213;-61
2021/03/07 02:43:58;;;;;;;12.67;6.83;;;-1.10;94.90;;;;;;5055337;28;20214;-61
2021/03/07 02:46:25;;;;;;;12.80;7.10;;;-1.30;95.00;;;;;;5054797;28;20256;-61
2021/03/07 02:48:55;;;;;;;11.87;7.00;;;-1.40;95.20;;;;;;5054395;28;20679;-63
2021/03/07 02:51:24;;;;;;;13.57;6.97;;;-1.60;95.50;;;;;;5054696;28;20627;-63
2021/03/07 02:53:51;;;;;;;12.70;6.90;;;-1.80;95.80;;;;;;5054339;28;20240;-63
2021/03/07 02:56:18;;;;;;;11.63;6.83;;;-1.80;96.00;;;;;;5053659;28;20238;-59
2021/03/07 02:58:47;;;;;;;13.70;7.77;;;-1.90;96.20;;;;;;5050897;28;20205;-60
2021/03/07 03:01:17;;;;;;;15.80;7.43;;;-1.90;96.20;;;;;;5050935;28;20205;-60
2021/03/07 03:03:45;;;;;;;19.70;8.70;;;-1.80;96.00;;;;;;5051214;28;20209;-59
2021/03/07 03:06:14;;;;;;;17.73;8.90;;;-1.70;95.80;;;;;;5051074;28;20221;-59
2021/03/07 03:08:42;;;;;;;16.23;7.33;;;-1.70;95.90;;;;;;5050758;28;20677;-60
2021/03/07 03:11:09;;;;;;;12.03;6.00;;;-1.70;96.00;;;;;;5051021;28;20201;-60
2021/03/07 03:13:37;;;;;;;9.77;5.97;;;-1.70;96.00;;;;;;5050856;28;20300;-59
2021/03/07 03:16:06;;;;;;;7.13;5.17;;;-1.70;96.00;;;;;;5051019;28;20229;-60
2021/03/07 03:18:33;;;;;;;10.00;5.63;;;-1.70;95.90;;;;;;5054436;28;20228;-60
2021/03/07 03:21:01;;;;;;;9.93;5.53;;;-1.60;95.90;;;;;;5055163;28;20209;-59
2021/03/07 03:23:28;;;;;;;9.97;5.87;;;-1.60;95.80;;;;;;5054688;28;20259;-58
2021/03/07 03:25:54;;;;;;;7.40;5.13;;;-1.60;95.80;;;;;;5054835;28;20371;-59
2021/03/07 03:28:22;;;;;;;8.00;5.23;;;-1.70;95.70;;;;;;5055397;28;20276;-61
2021/03/07 03:30:49;;;;;;;8.93;5.97;;;-1.80;96.00;;;;;;5059354;28;20249;-59
2021/03/07 03:33:16;;;;;;;9.10;5.67;;;-2.00;96.30;;;;;;5054610;28;20216;-60
2021/03/07 03:35:42;;;;;;;7.67;5.30;;;-2.00;96.40;;;;;;5054114;28;20597;-59
2021/03/07 03:38:08;;;;;;;8.07;5.10;;;-2.10;96.50;;;;;;5054260;28;20205;-59
2021/03/07 03:40:35;;;;;;;8.77;5.47;;;-2.10;96.70;;;;;;5054021;28;20676;-60
2021/03/07 03:43:06;;;;;;;7.10;5.17;;;-2.30;96.80;;;;;;5053863;28;20581;-60
2021/03/07 03:45:33;;;;;;;8.90;5.30;;;-2.30;97.00;;;;;;5054012;28;20245;-59
2021/03/07 03:48:04;;;;;;;11.07;5.37;;;-2.40;97.10;;;;;;5054138;28;20205;-60
2021/03/07 03:50:31;;;;;;;8.53;5.17;;;-2.40;97.30;;;;;;5054176;28;20237;-59
2021/03/07 03:53:01;;;;;;;7.23;5.03;;;-2.50;97.50;;;;;;5054151;28;20210;-60
2021/03/07 03:55:29;;;;;;;9.17;5.10;;;-2.60;97.60;;;;;;5054141;28;20208;-58
2021/03/07 03:57:57;;;;;;;9.17;6.13;;;-2.60;97.90;;;;;;5053344;28;20607;-60
2021/03/07 04:00:26;;;;;;;11.53;8.03;;;-2.70;97.90;;;;;;5053920;28;20265;-62
2021/03/07 04:02:54;;;;;;;8.13;5.40;;;-2.70;97.90;;;;;;5053721;28;20201;-59
2021/03/07 04:05:22;;;;;;;10.27;7.40;;;-2.50;97.90;;;;;;5053551;28;20205;-60
2021/03/07 04:07:50;;;;;;;14.33;8.47;;;-2.40;97.60;;;;;;5053605;28;20322;-60
2021/03/07 04:10:18;;;;;;;9.17;5.67;;;-2.40;97.60;;;;;;5054074;28;20226;-60
2021/03/07 04:12:45;;;;;;;7.53;5.83;;;-2.40;97.60;;;;;;5054295;28;20213;-61
2021/03/07 04:15:13;;;;;;;7.97;5.50;;;-2.50;97.60;;;;;;5053473;28;20206;-59
2021/03/07 04:17:41;;;;;;;7.93;5.43;;;-2.60;98.00;;;;;;5053182;28;20602;-60
2021/03/07 04:20:09;;;;;;;9.73;6.53;;;-2.80;98.20;;;;;;5053238;28;20209;-60
2021/03/07 04:22:35;;;;;;;7.97;6.00;;;-2.70;98.40;;;;;;5053633;28;20210;-59
2021/03/07 04:25:04;;;;;;;8.00;5.93;;;-2.60;98.10;;;;;;5053620;28;20245;-60
2021/03/07 04:27:31;;;;;;;9.80;6.50;;;-2.50;98.00;;;;;;5053151;28;20232;-61
2021/03/07 04:29:58;;;;;;;9.83;6.40;;;-2.50;97.70;;;;;;5053347;28;20229;-61
2021/03/07 04:32:25;;;;;;;9.23;6.30;;;-2.40;97.60;;;;;;5053865;28;20213;-60
2021/03/07 04:34:52;;;;;;;10.53;6.77;;;-2.40;97.60;;;;;;5053108;28;20581;-60
2021/03/07 04:37:18;;;;;;;12.77;6.90;;;-2.50;98.00;;;;;;5053310;28;20232;-60
2021/03/07 04:39:45;;;;;;;7.77;5.73;;;-2.50;97.90;;;;;;5053348;28;20209;-59
2021/03/07 04:42:12;;;;;;;9.13;5.77;;;-2.50;97.90;;;;;;5053113;28;20210;-59
2021/03/07 04:44:39;;;;;;;7.63;5.27;;;-2.50;98.10;;;;;;5053189;28;20205;-59
2021/03/07 04:47:05;;;;;;;7.90;5.53;;;-2.70;98.60;;;;;;5053094;28;20280;-58
2021/03/07 04:49:31;;;;;;;7.27;4.90;;;-2.80;98.90;;;;;;5052901;28;20221;-58
2021/03/07 04:51:57;;;;;;;6.53;4.67;;;-2.80;99.00;;;;;;5053057;28;20214;-59
2021/03/07 04:54:24;;;;;;;6.60;4.97;;;-2.80;99.00;;;;;;5052894;28;20723;-59
2021/03/07 04:56:50;;;;;;;7.07;4.37;;;-2.90;99.00;;;;;;5052764;28;20238;-62
2021/03/07 04:59:18;;;;;;;6.67;4.60;;;-2.80;98.90;;;;;;5053302;28;20669;-61
2021/03/07 05:01:44;;;;;;;7.17;4.27;;;-2.50;99.10;;;;;;5053216;28;20585;-58
2021/03/07 05:04:10;;;;;;;6.80;4.50;;;-2.70;99.00;;;;;;5053008;28;20212;-59
2021/03/07 05:06:39;;;;;;;6.60;4.50;;;-2.60;98.70;;;;;;5052782;28;20301;-60
2021/03/07 05:09:06;;;;;;;7.07;4.83;;;-2.40;98.50;;;;;;5052869;28;20256;-59
2021/03/07 05:11:32;;;;;;;8.13;5.07;;;-2.40;98.20;;;;;;5052882;28;20205;-59
2021/03/07 05:13:58;;;;;;;8.30;5.10;;;-2.20;98.00;;;;;;5052992;28;20206;-60
2021/03/07 05:16:25;;;;;;;7.40;5.00;;;-2.20;97.80;;;;;;5052760;28;20419;-59
2021/03/07 05:18:52;;;;;;;6.70;4.93;;;-2.20;97.80;;;;;;5052562;28;20206;-60
2021/03/07 05:21:18;;;;;;;8.00;5.17;;;-2.20;97.70;;;;;;5052227;28;20205;-58
2021/03/07 05:23:44;;;;;;;8.93;5.17;;;-2.30;98.00;;;;;;5052570;28;20206;-59
2021/03/07 05:26:10;;;;;;;8.33;5.57;;;-2.40;98.20;;;;;;5052456;28;20240;-58
2021/03/07 05:28:37;;;;;;;6.07;4.67;;;-2.50;98.30;;;;;;5052530;28;20240;-58
2021/03/07 05:31:03;;;;;;;7.77;4.90;;;-2.40;98.30;;;;;;5052157;28;20266;-60
2021/03/07 05:33:31;;;;;;;9.97;5.97;;;-2.30;98.10;;;;;;5052414;28;20221;-59
2021/03/07 05:35:57;;;;;;;7.33;5.20;;;-2.20;97.80;;;;;;5052508;28;20230;-59
2021/03/07 05:38:24;;;;;;;8.50;4.80;;;-2.10;97.80;;;;;;5052870;28;20209;-61
2021/03/07 05:40:50;;;;;;;6.63;4.50;;;-2.00;97.70;;;;;;5052132;28;20681;-60
2021/03/07 05:43:17;;;;;;;8.03;4.97;;;-2.00;97.80;;;;;;5052356;28;20210;-59
2021/03/07 05:45:45;;;;;;;10.10;5.07;;;-2.00;97.70;;;;;;5052027;28;20609;-59
2021/03/07 05:48:11;;;;;;;6.37;4.77;;;-1.90;97.50;;;;;;5051954;28;20209;-59
2021/03/07 05:50:38;;;;;;;6.10;4.70;;;-1.90;97.40;;;;;;5052141;28;20225;-60
2021/03/07 05:53:05;;;;;;;6.70;4.80;;;-1.90;97.40;;;;;;5052115;28;20205;-59
2021/03/07 05:55:34;;;;;;;7.20;4.73;;;-1.90;97.40;;;;;;5051930;28;20210;-59
2021/03/07 05:58:02;;;;;;;7.87;5.50;;;-1.90;97.40;;;;;;5052038;28;20206;-60
2021/03/07 06:00:29;;;;;;;7.40;5.70;;;-1.80;97.30;;;;;;5052132;28;20202;-59
2021/03/07 06:02:55;;;;;;;6.07;4.70;;;-1.80;97.20;;;;;;5052448;28;20220;-60
2021/03/07 06:05:22;;;;;;;8.60;5.40;;;-1.80;97.30;;;;;;5052376;28;20205;-59
2021/03/07 06:07:49;;;;;;;7.70;5.40;;;-1.90;97.40;;;;;;5052467;28;20222;-60
2021/03/07 06:10:18;;;;;;;7.57;5.17;;;-1.80;97.40;;;;;;5052286;28;20232;-59
2021/03/07 06:12:56;;;;;;;7.03;4.67;;;-1.80;97.30;;;;;;5052605;28;20221;-59
2021/03/07 06:15:22;;;;;;;6.00;4.07;;;-1.70;97.20;;;;;;5052122;28;20205;-60
2021/03/07 06:17:48;;;;;;;5.17;3.93;;;-1.50;97.10;;;;;;5052018;28;20225;-59
2021/03/07 06:20:17;;;;;;;6.07;4.20;;;-1.40;96.90;;;;;;5051818;28;20255;-59
2021/03/07 06:22:53;;;;;;;6.47;4.50;;;-1.30;96.70;;;;;;5051883;28;20201;-58
2021/03/07 06:25:20;;;;;;;8.47;5.27;;;-1.20;96.40;;;;;;5051608;28;20263;-59
2021/03/07 06:27:46;;;;;;;5.97;3.83;;;-1.10;96.30;;;;;;5051203;28;20229;-60
2021/03/07 06:30:16;;;;;;;4.97;4.23;;;-1.00;96.00;;;;;;5051573;28;20225;-59
2021/03/07 06:32:49;;;;;;;6.43;4.50;;;-0.90;96.00;;;;;;5051962;28;20347;-60
2021/03/07 06:35:20;;;;;;;7.47;4.57;;;-0.70;95.80;;;;;;5051290;28;20303;-58
2021/03/07 06:37:56;;;;;;;6.27;4.70;;;-0.80;95.60;;;;;;5051231;28;20229;-61
2021/03/07 06:40:24;;;;;;;6.97;4.87;;;-0.80;95.60;;;;;;5051588;28;20243;-60
2021/03/07 06:42:51;;;;;;;8.20;5.40;;;-0.60;95.80;;;;;;5051829;28;20205;-60
2021/03/07 06:45:17;;;;;;;7.03;4.60;;;0.10;96.40;;;;;;5051512;28;20700;-57
2021/03/07 06:47:54;;;;;;;6.17;4.70;;;1.00;95.50;;;;;;5051587;28;20225;-57
2021/03/07 06:50:21;;;;;;;8.70;5.50;;;1.80;93.90;;;;;;5051100;28;20260;-58
2021/03/07 06:52:49;;;;;;;6.27;4.67;;;2.80;92.40;;;;;;5055667;28;20381;-58
2021/03/07 06:55:17;;;;;;;7.50;5.10;;;4.10;90.70;;;;;;5055608;28;20213;-60
2021/03/07 06:57:44;;;;;;;7.97;4.97;;;5.30;87.70;;;;;;5055753;28;20241;-62
2021/03/07 07:00:11;;;;;;;7.17;5.40;;;6.50;83.30;;;;;;5055528;28;20202;-59
2021/03/07 07:02:38;;;;;;;6.93;5.30;;;7.50;79.10;;;;;;5055310;28;20201;-59
2021/03/07 07:05:05;;;;;;;8.70;5.60;;;8.30;74.90;;;;;;5054805;28;20211;-60
2021/03/07 07:07:31;;;;;;;5.70;4.90;;;9.20;71.10;;;;;;5055488;28;20221;-59
2021/03/07 07:09:59;;;;;;;6.67;5.00;;;9.90;68.10;;;;;;5054762;28;20233;-58
2021/03/07 07:12:27;;;;;;;6.57;4.30;;;10.50;63.80;;;;;;5055116;28;20234;-59
2021/03/07 07:15:07;;;;;;;6.60;4.60;;;11.10;60.00;;;;;;5054921;28;20212;-59
2021/03/07 07:17:33;;;;;;;6.80;5.20;;;11.50;59.00;;;;;;5054793;28;20619;-62
2021/03/07 07:19:59;;;;;;;5.63;4.57;;;12.00;57.00;;;;;;5055081;28;20680;-59
2021/03/07 07:22:26;;;;;;;5.87;4.47;;;12.50;56.20;;;;;;5055418;28;20205;-59
2021/03/07 07:24:52;;;;;;;5.30;4.57;;;13.00;54.50;;;;;;5054849;28;20205;-61
2021/03/07 07:27:20;;;;;;;8.23;4.90;;;13.40;52.20;;;;;;5055322;28;20226;-60
2021/03/07 07:29:47;;;;;;;4.63;3.90;;;13.80;51.00;;;;;;5055168;28;20233;-60
2021/03/07 07:32:18;;;;;;;4.80;4.10;;;14.10;49.80;;;;;;5054870;28;20416;-62
2021/03/07 07:34:48;;;;;;;4.93;3.90;;;14.40;48.90;;;;;;5055342;28;20217;-61
2021/03/07 07:37:20;;;;;;;4.90;3.83;;;14.60;48.70;;;;;;5055494;28;20275;-61
2021/03/07 07:39:51;;;;;;;4.67;3.90;;;14.70;47.50;;;;;;5055584;28;20209;-61
2021/03/07 07:42:21;;;;;;;7.00;4.00;;;14.70;47.10;;;;;;5055623;28;20205;-62
2021/03/07 07:44:49;;;;;;;5.47;4.00;;;14.40;47.20;;;;;;5054577;28;20220;-60
2021/03/07 07:47:16;;;;;;;5.20;4.20;;;13.90;47.20;;;;;;5055237;28;20230;-60
2021/03/07 07:49:45;;;;;;;6.70;4.00;;;13.50;47.90;;;;;;5054541;28;20221;-60
2021/03/07 07:52:36;;;;;;;5.73;4.10;;;12.80;48.10;;;;;;5054661;28;20236;-59
2021/03/07 07:55:06;;;;;;;5.90;4.37;;;11.60;50.20;;;;;;5054016;28;20209;-59
2021/03/07 07:57:53;;;;;;;7.40;3.80;;;10.40;52.10;;;;;;5053925;28;20295;-59
2021/03/07 08:00:48;;;;;;;5.03;3.43;;;9.20;54.70;;;;;;5050912;28;20202;-60
2021/03/07 08:03:34;;;;;;;6.07;4.10;;;8.00;57.10;;;;;;5053541;28;20209;-59
2021/03/07 08:06:01;;;;;;;5.87;3.97;;;7.00;59.60;;;;;;5054476;28;20221;-59
2021/03/07 08:08:33;;;;;;;6.40;4.53;;;6.10;62.50;;;;;;5054347;28;20472;-59
2021/03/07 08:11:00;;;;;;;7.17;4.43;;;5.50;65.00;;;;;;5054303;28;20240;-60
2021/03/07 08:13:47;;;;;;;6.23;3.90;;;5.20;66.60;;;;;;5054323;28;20245;-59
2021/03/07 08:16:42;;;;;;;10.03;4.53;;;4.90;68.00;;;;;;5054177;28;20255;-60
2021/03/07 08:19:10;;;;;;;4.80;3.90;;;4.70;69.60;;;;;;5054283;28;20726;-59
2021/03/07 08:21:59;;;;;;;4.87;3.90;;;4.60;70.60;;;;;;5054219;28;20259;-59
2021/03/07 08:24:51;;;;;;;5.50;3.83;;;4.70;70.30;;;;;;5054003;28;20213;-59
2021/03/07 08:27:32;;;;;;;4.70;3.90;;;4.60;71.50;;;;;;5054134;28;20229;-58
2021/03/07 08:29:58;;;;;;;4.53;3.63;;;4.60;71.70;;;;;;5053677;28;20225;-59
2021/03/07 08:32:41;;;;;;;5.43;3.80;;;4.50;71.90;;;;;;5053836;28;20202;-60
2021/03/07 08:35:13;;;;;;;4.13;3.60;;;4.60;72.30;;;;;;5053949;28;20205;-58
2021/03/07 08:37:40;;;;;;;5.10;4.10;;;4.60;72.30;;;;;;5053517;28;20232;-58
2021/03/07 08:40:32;;;;;;;3.87;3.47;;;4.70;72.00;;;;;;5053991;28;20206;-58
2021/03/07 08:43:21;;;;;;;5.67;3.80;;;4.90;72.40;;;;;;5053307;28;20201;-58
2021/03/07 08:46:02;;;;;;;4.17;3.70;;;5.10;71.50;;;;;;5052946;28;20212;-60
2021/03/07 08:48:31;;;;;;;5.27;3.90;;;5.10;71.90;;;;;;5051763;28;20213;-59
2021/03/07 08:50:58;;;;;;;5.80;4.23;;;5.20;72.10;;;;;;5053239;28;20226;-59
2021/03/07 08:53:25;;;;;;;6.33;4.10;;;5.40;71.40;;;;;;5053188;28;20388;-59
2021/03/07 08:55:51;;;;;;;4.93;3.80;;;5.50;71.00;;;;;;5053763;28;20213;-62
2021/03/07 08:58:18;;;;;;;5.93;4.33;;;5.70;71.00;;;;;;5056800;28;20201;-61
2021/03/07 09:00:46;;;;;;;5.90;4.20;;;5.80;70.80;;;;;;5057358;28;20205;-62
2021/03/07 09:03:13;;;;;;;4.67;3.73;;;5.90;70.90;;;;;;5057308;28;20224;-61
2021/03/07 09:05:40;;;;;;;4.57;3.80;;;6.10;70.10;;;;;;5057366;28;20244;-61
2021/03/07 09:08:06;;;;;;;6.47;3.87;;;6.20;70.10;;;;;;5057417;28;20260;-60
2021/03/07 09:10:35;;;;;;;5.43;4.30;;;6.30;70.00;;;;;;5057555;28;20295;-61
2021/03/07 09:13:12;;;;;;;6.63;4.50;;;6.40;69.50;;;;;;5057555;28;20201;-62
2021/03/07 09:15:40;;;;;;;4.90;4.00;;;6.60;69.70;;;;;;5056857;28;20563;-62
2021/03/07 09:18:07;;;;;;;5.20;4.37;;;6.70;69.50;;;;;;5057872;28;20218;-62
2021/03/07 09:20:44;;;;;;;6.07;4.03;;;6.70;69.00;;;;;;5057814;28;20198;-61
2021/03/07 09:23:29;;;;;;;5.23;4.47;;;6.60;69.50;;;;;;5057211;28;20205;-62
2021/03/07 09:25:55;;;;;;;5.90;4.17;;;6.60;69.80;;;;;;5056215;28;20233;-62
2021/03/07 09:28:39;;;;;;;6.53;4.20;;;6.60;69.90;;;;;;5056429;28;20670;-62
2021/03/07 09:31:09;;;;;;;5.23;4.10;;;6.70;69.80;;;;;;5056556;28;20225;-62
2021/03/07 09:33:36;;;;;;;5.80;4.20;;;6.80;69.90;;;;;;5056165;28;20231;-62
2021/03/07 09:36:09;;;;;;;4.97;4.23;;;6.90;69.90;;;;;;5054275;28;20237;-61
2021/03/07 09:38:41;;;;;;;5.83;3.90;;;6.90;70.70;;;;;;5054119;28;20267;-62
2021/03/07 09:41:07;;;;;;;6.57;4.40;;;6.90;70.00;;;;;;5054172;28;20204;-63
2021/03/07 09:43:34;;;;;;;8.40;4.57;;;7.10;70.10;;;;;;5053715;28;20700;-63
2021/03/07 09:46:01;;;;;;;5.70;4.73;;;7.10;69.70;;;;;;5051680;28;20218;-61
2021/03/07 09:48:33;;;;;;;5.20;4.40;;;7.20;70.10;;;;;;5052225;28;20210;-61
2021/03/07 09:51:00;;;;;;;5.53;4.70;;;7.40;70.00;;;;;;5051918;28;20217;-61
2021/03/07 09:53:28;;;;;;;6.43;4.83;;;7.60;69.50;;;;;;5051938;28;20225;-61
2021/03/07 09:55:55;;;;;;;5.83;4.90;;;7.80;68.90;;;;;;5051805;28;20249;-62
2021/03/07 09:58:21;;;;;;;6.40;4.87;;;7.80;68.80;;;;;;5052105;28;20194;-61
2021/03/07 10:00:49;;;;;;;5.67;4.80;;;7.80;69.00;;;;;;5052174;28;20205;-61
2021/03/07 10:03:20;;;;;;;6.50;4.90;;;7.80;69.20;;;;;;5052089;28;20624;-61
2021/03/07 10:06:06;;;;;;;7.63;4.80;;;7.90;69.30;;;;;;5051747;28;20217;-61
2021/03/07 10:08:34;;;;;;;7.23;5.07;;;7.90;69.40;;;;;;5052068;28;20263;-61
2021/03/07 10:11:27;;;;;;;6.63;5.50;;;8.00;69.70;;;;;;5052360;28;20344;-61
2021/03/07 10:13:59;;;;;;;6.27;5.00;;;8.40;69.40;;;;;;5027577;28;20206;-61
2021/03/07 10:16:28;;;;;;;7.57;6.00;;;8.60;68.60;;;;;;5051749;28;20313;-61
2021/03/07 10:19:06;;;;;;;8.43;5.80;;;8.90;68.90;;;;;;5051675;28;20205;-61
2021/03/07 10:21:33;;;;;;;6.87;5.90;;;9.10;68.80;;;;;;5051636;28;20666;-61
2021/03/07 10:24:12;;;;;;;10.33;6.47;;;9.30;68.70;;;;;;5051874;28;20213;-61
2021/03/07 10:26:39;;;;;;;7.73;5.73;;;9.50;69.20;;;;;;5050927;28;20261;-61
2021/03/07 10:29:23;;;;;;;7.30;5.93;;;9.70;67.60;;;;;;5052048;28;20216;-61
2021/03/07 10:32:18;;;;;;;7.07;6.20;;;10.10;65.80;;;;;;5051408;28;20213;-61
2021/03/07 10:34:45;;;;;;;7.40;5.70;;;10.30;65.40;;;;;;5042191;28;20248;-61
2021/03/07 10:37:34;;;;;;;7.20;6.03;;;10.50;65.10;;;;;;5051060;28;20247;-62
2021/03/07 10:40:01;;;;;;;6.87;6.17;;;10.60;65.10;;;;;;5051659;28;20190;-62
2021/03/07 10:42:31;;;;;;;7.90;6.53;;;10.60;65.10;;;;;;5051464;28;20665;-61
2021/03/07 10:45:12;;;;;;;10.20;6.80;;;10.60;65.60;;;;;;5051138;28;20209;-61
2021/03/07 10:47:38;;;;;;;8.80;6.47;;;10.60;65.10;;;;;;5051191;28;20229;-61
2021/03/07 10:50:05;;;;;;;7.60;6.57;;;10.40;66.10;;;;;;5051169;28;20355;-61
2021/03/07 10:52:32;;;;;;;9.73;7.43;;;10.50;66.40;;;;;;5051428;28;20202;-61
2021/03/07 10:54:58;;;;;;;7.70;6.77;;;10.70;66.40;;;;;;5050997;28;20730;-63
2021/03/07 10:57:25;;;;;;;13.13;8.67;;;10.90;65.60;;;;;;5050841;28;20237;-62
2021/03/07 10:59:52;;;;;;;10.20;8.00;;;11.00;65.30;;;;;;5051211;28;20208;-62
2021/03/07 11:02:18;;;;;;;8.40;7.13;;;11.10;66.10;;;;;;5050826;28;20205;-61
2021/03/07 11:04:45;;;;;;;9.67;7.63;;;10.90;66.40;;;;;;5050999;28;20236;-61
2021/03/07 11:07:12;;;;;;;10.10;8.63;;;10.70;67.20;;;;;;5051046;28;20229;-62
2021/03/07 11:09:39;;;;;;;10.10;8.93;;;10.60;68.50;;;;;;5050777;28;20205;-62
2021/03/07 11:12:06;;;;;;;10.97;9.43;;;10.80;68.90;;;;;;5050957;28;20209;-62
2021/03/07 11:14:33;;;;;;;10.70;9.20;;;11.00;68.20;;;;;;5051062;28;20498;-62
2021/03/07 11:16:59;;;;;;;10.73;8.53;;;11.20;67.20;;;;;;5050962;28;20232;-62
2021/03/07 11:19:25;;;;;;;10.47;7.97;;;11.40;66.40;;;;;;5050983;28;20213;-62
2021/03/07 11:21:52;;;;;;;9.13;7.83;;;11.40;65.80;;;;;;5051066;28;20208;-62
2021/03/07 11:24:18;;;;;;;9.43;8.20;;;11.60;65.80;;;;;;5050626;28;20577;-63
2021/03/07 11:26:44;;;;;;;10.67;8.27;;;11.90;65.20;;;;;;5050581;28;20233;-62
2021/03/07 11:29:10;;;;;;;9.40;7.90;;;12.10;64.80;;;;;;5050490;28;20210;-64
2021/03/07 11:31:37;;;;;;;8.67;7.23;;;12.30;64.00;;;;;;5050459;28;20249;-62
2021/03/07 11:34:04;;;;;;;8.97;7.87;;;12.30;63.60;;;;;;5050506;28;20213;-62
2021/03/07 11:36:30;;;;;;;9.50;8.13;;;12.20;63.90;;;;;;5050686;28;20226;-62
2021/03/07 11:38:56;;;;;;;10.93;8.87;;;12.10;64.20;;;;;;5053285;28;20205;-62
2021/03/07 11:41:22;;;;;;;10.80;8.53;;;12.10;64.00;;;;;;5054672;28;20202;-62
2021/03/07 11:43:48;;;;;;;10.30;8.20;;;12.10;64.00;;;;;;5054560;28;20606;-63
2021/03/07 11:46:15;;;;;;;9.40;7.90;;;12.10;62.90;;;;;;5054192;28;20221;-62
2021/03/07 11:48:42;;;;;;;9.07;7.83;;;12.20;62.00;;;;;;5053970;28;20213;-62
2021/03/07 11:51:08;;;;;;;9.27;8.00;;;12.00;61.70;;;;;;5054172;28;20275;-62
2021/03/07 11:53:34;;;;;;;10.57;7.50;;;11.80;62.50;;;;;;5054082;28;20673;-62
2021/03/07 11:56:00;;;;;;;10.60;7.83;;;11.40;63.30;;;;;;5054034;28;20237;-62
2021/03/07 11:58:26;;;;;;;9.10;7.77;;;11.00;63.70;;;;;;5054102;28;20679;-62
2021/03/07 12:00:52;;;;;;;8.40;7.33;;;10.90;64.40;;;;;;5054333;28;20256;-62
2021/03/07 12:03:19;;;;;;;9.40;7.30;;;10.90;64.60;;;;;;5054497;28;20665;-62
2021/03/07 12:05:46;;;;;;;9.53;7.13;;;10.90;64.30;;;;;;5054553;28;20206;-62
2021/03/07 12:08:12;;;;;;;8.37;6.73;;;10.90;63.40;;;;;;5054209;28;20255;-61
2021/03/07 12:10:38;;;;;;;7.83;6.87;;;11.00;63.10;;;;;;5053672;28;20623;-61
2021/03/07 12:13:04;;;;;;;8.13;7.27;;;11.10;62.80;;;;;;5054175;28;20209;-64
2021/03/07 12:15:30;;;;;;;8.77;7.37;;;11.10;63.00;;;;;;5053850;28;20491;-61
2021/03/07 12:17:57;;;;;;;8.83;6.80;;;11.20;63.70;;;;;;5053859;28;20233;-61
2021/03/07 12:20:23;;;;;;;8.07;7.10;;;11.30;63.60;;;;;;5053747;28;20209;-61
2021/03/07 12:22:50;;;;;;;9.20;7.53;;;11.30;63.10;;;;;;5053542;28;20209;-61
2021/03/07 12:25:16;;;;;;;8.50;7.07;;;11.40;62.60;;;;;;5053646;28;20214;-61
2021/03/07 12:27:43;;;;;;;9.17;7.27;;;11.50;63.00;;;;;;5053606;28;20228;-61
2021/03/07 12:30:11;;;;;;;8.20;7.40;;;11.60;60.60;;;;;;5053260;28;20275;-61
2021/03/07 12:32:37;;;;;;;8.23;6.93;;;11.50;59.90;;;;;;5053206;28;20217;-62
2021/03/07 12:35:04;;;;;;;8.17;6.97;;;11.60;60.40;;;;;;5053400;28;20205;-62
2021/03/07 12:37:31;;;;;;;10.17;8.10;;;11.70;59.70;;;;;;5052957;28;20230;-66
2021/03/07 12:39:58;;;;;;;9.07;7.60;;;11.90;59.70;;;;;;5053182;28;20256;-62
2021/03/07 12:42:24;;;;;;;9.07;7.63;;;12.00;59.50;;;;;;5053123;28;20206;-62
2021/03/07 12:44:51;;;;;;;9.33;7.40;;;12.00;59.90;;;;;;5052680;28;20204;-62
2021/03/07 12:47:17;;;;;;;9.63;7.80;;;11.90;59.40;;;;;;5052600;28;20651;-63
2021/03/07 12:49:44;;;;;;;7.87;6.90;;;11.90;59.10;;;;;;5052556;28;20209;-63
2021/03/07 12:52:10;;;;;;;8.67;7.77;;;11.90;58.90;;;;;;5052738;28;20209;-63
2021/03/07 12:54:36;;;;;;;7.87;6.77;;;11.80;59.40;;;;;;5053054;28;20216;-62